createdAt,value
2023-03-21T00:33:22.324Z,5.57
2023-03-21T00:36:06.679Z,5.43
2023-03-21T00:38:34.546Z,5.83
2023-03-21T00:41:18.885Z,6.47
2023-03-21T00:43:52.031Z,7.03
2023-03-21T00:46:19.671Z,6.90
2023-03-21T00:48:47.247Z,7.70
2023-03-21T00:51:25.940Z,7.70
2023-03-21T00:53:57.155Z,7.77
2023-03-21T00:56:27.669Z,7.53
2023-03-21T00:58:54.500Z,8.77
2023-03-21T01:01:21.607Z,8.43
2023-03-21T01:03:51.147Z,9.60
2023-03-21T01:06:19.708Z,9.63
2023-03-21T01:08:52.604Z,9.47
2023-03-21T01:11:24.022Z,10.60
2023-03-21T01:14:04.151Z,11.93
2023-03-21T01:16:35.142Z,12.10
2023-03-21T01:19:05.146Z,11.57
2023-03-21T01:21:34.476Z,12.57
2023-03-21T01:24:01.862Z,12.73
2023-03-21T01:26:29.539Z,12.13
2023-03-21T01:28:56.265Z,12.07
2023-03-21T01:31:23.720Z,12.40
2023-03-21T01:33:51.076Z,11.43
2023-03-21T01:36:23.522Z,10.63
2023-03-21T01:38:53.776Z,11.43
2023-03-21T01:41:36.621Z,11.07
2023-03-21T01:44:16.895Z,10.47
2023-03-21T01:47:11.380Z,10.97
2023-03-21T01:49:40.981Z,10.93
2023-03-21T01:52:29.741Z,9.83
2023-03-21T01:55:03.842Z,10.10
2023-03-21T01:57:52.145Z,10.77
2023-03-21T02:00:29.496Z,10.80
2023-03-21T02:03:23.553Z,10.20
2023-03-21T02:06:14.686Z,10.93
2023-03-21T02:08:45.501Z,11.43
2023-03-21T02:11:16.463Z,10.80
2023-03-21T02:13:44.093Z,12.03
2023-03-21T02:16:28.445Z,10.17
2023-03-21T02:19:06.721Z,9.97
2023-03-21T02:21:52.580Z,10.87
2023-03-21T02:24:41.074Z,11.87
2023-03-21T02:27:21.986Z,12.47
2023-03-21T02:30:26.488Z,11.80
2023-03-21T02:33:09.964Z,13.73
2023-03-21T02:35:47.186Z,12.23
2023-03-21T02:38:28.130Z,11.37
2023-03-21T02:41:19.999Z,11.53
2023-03-21T02:43:59.280Z,12.50
2023-03-21T02:46:45.606Z,11.57
2023-03-21T02:49:19.906Z,11.43
2023-03-21T02:51:50.987Z,12.20
2023-03-21T02:54:38.312Z,12.43
2023-03-21T02:57:09.660Z,12.13
2023-03-21T02:59:51.619Z,14.17
2023-03-21T03:02:27.469Z,12.27
2023-03-21T03:04:55.516Z,13.77
2023-03-21T03:07:44.555Z,13.13
2023-03-21T03:10:27.830Z,13.83
2023-03-21T03:13:05.083Z,13.23
2023-03-21T03:15:41.864Z,12.73
2023-03-21T03:18:37.912Z,13.50
2023-03-21T03:21:21.894Z,13.83
2023-03-21T03:23:53.546Z,13.93
2023-03-21T03:26:29.117Z,13.87
2023-03-21T03:29:07.241Z,14.47
2023-03-21T03:31:44.383Z,13.17
2023-03-21T03:34:20.767Z,14.17
2023-03-21T03:36:56.144Z,13.57
2023-03-21T03:40:08.802Z,14.23
2023-03-21T03:42:48.525Z,15.43
2023-03-21T03:45:30.287Z,15.70
2023-03-21T03:48:12.371Z,15.93
2023-03-21T03:50:47.642Z,17.13
2023-03-21T03:53:28.781Z,17.70
2023-03-21T03:55:59.174Z,17.77
2023-03-21T03:58:36.360Z,20.30
2023-03-21T04:01:10.965Z,20.87
2023-03-21T04:03:48.860Z,21.53
2023-03-21T04:06:18.058Z,19.37
2023-03-21T04:08:45.373Z,17.60
2023-03-21T04:11:15.444Z,17.07
2023-03-21T04:13:46.556Z,19.20
2023-03-21T04:16:20.169Z,16.50
2023-03-21T04:18:47.729Z,16.30
2023-03-21T04:21:18.810Z,15.87
2023-03-21T04:23:45.884Z,15.57
2023-03-21T04:26:13.061Z,14.67
2023-03-21T04:28:48.384Z,15.30
2023-03-21T04:31:41.645Z,14.80
2023-03-21T04:34:13.029Z,14.80
2023-03-21T04:36:49.511Z,14.97
2023-03-21T04:39:17.204Z,14.17
2023-03-21T04:41:48.193Z,13.83
2023-03-21T04:44:16.524Z,14.33
2023-03-21T04:46:44.389Z,14.47
2023-03-21T04:49:12.056Z,14.43
2023-03-21T04:51:39.882Z,16.83
2023-03-21T04:56:42.772Z,17.80
2023-03-21T04:59:14.677Z,15.97
2023-03-21T05:01:43.894Z,17.43
2023-03-21T05:04:13.445Z,18.47
2023-03-21T05:06:42.412Z,18.67
2023-03-21T05:09:10.451Z,17.93
2023-03-21T05:11:40.200Z,17.40
2023-03-21T05:14:09.582Z,17.00
2023-03-21T05:16:48.391Z,16.83
2023-03-21T05:19:17.383Z,16.80
2023-03-21T05:21:45.256Z,16.30
2023-03-21T05:24:25.032Z,17.43
2023-03-21T05:26:56.102Z,17.40
2023-03-21T05:29:25.180Z,17.83
2023-03-21T05:31:59.036Z,20.30
2023-03-21T05:34:27.070Z,16.47
2023-03-21T05:36:55.041Z,16.53
2023-03-21T05:39:24.152Z,17.37
2023-03-21T05:42:00.832Z,16.73
2023-03-21T05:44:27.881Z,17.60
2023-03-21T05:46:55.153Z,16.30
2023-03-21T05:49:27.438Z,18.63
2023-03-21T05:51:58.943Z,17.90
2023-03-21T05:54:25.713Z,18.50
2023-03-21T05:56:52.852Z,19.23
2023-03-21T05:59:36.288Z,19.90
2023-03-21T06:02:04.148Z,18.50
2023-03-21T06:04:31.175Z,19.50
2023-03-21T06:06:58.302Z,20.07
2023-03-21T06:09:26.083Z,18.90
2023-03-21T06:11:58.410Z,19.77
2023-03-21T06:14:29.726Z,20.33
2023-03-21T06:17:16.647Z,18.63
2023-03-21T06:19:48.996Z,18.37
2023-03-21T06:22:39.355Z,18.40
2023-03-21T06:25:10.267Z,17.70
2023-03-21T06:27:38.013Z,18.00
2023-03-21T06:30:07.312Z,16.63
2023-03-21T06:32:39.700Z,20.37
2023-03-21T06:35:11.132Z,20.47
2023-03-21T06:37:38.644Z,18.70
2023-03-21T06:40:08.074Z,18.07
2023-03-21T06:42:35.620Z,17.60
2023-03-21T06:45:09.239Z,17.17
2023-03-21T06:47:36.418Z,15.67
2023-03-21T06:50:07.133Z,17.03
2023-03-21T06:52:40.352Z,16.10
2023-03-21T06:55:07.694Z,15.60
2023-03-21T06:57:34.985Z,16.10
2023-03-21T07:00:02.115Z,15.50
2023-03-21T07:02:29.294Z,17.07
2023-03-21T07:05:02.510Z,15.07
2023-03-21T07:07:31.225Z,14.33
2023-03-21T07:09:58.126Z,13.80
2023-03-21T07:12:27.218Z,13.77
2023-03-21T07:15:22.869Z,13.83
2023-03-21T07:17:51.068Z,13.17
2023-03-21T07:20:18.104Z,13.87
2023-03-21T07:22:45.658Z,11.80
2023-03-21T07:25:13.936Z,11.57
2023-03-21T07:27:41.572Z,11.00
2023-03-21T07:30:10.813Z,11.17
2023-03-21T07:32:38.984Z,11.80
2023-03-21T07:35:07.886Z,10.07
2023-03-21T07:37:37.846Z,10.03
2023-03-21T07:40:10.175Z,9.80
2023-03-21T07:42:39.564Z,8.77
2023-03-21T07:45:07.843Z,9.70
2023-03-21T07:47:35.964Z,10.13
2023-03-21T07:50:04.582Z,11.70
2023-03-21T07:52:31.906Z,9.40
2023-03-21T07:54:58.743Z,8.87
2023-03-21T07:57:26.133Z,8.10
2023-03-21T07:59:52.886Z,9.80
2023-03-21T08:02:20.128Z,11.07
2023-03-21T08:04:46.991Z,9.67
2023-03-21T08:07:14.119Z,9.33
2023-03-21T08:09:40.989Z,10.70
2023-03-21T08:12:11.187Z,8.40
2023-03-21T08:14:38.075Z,8.37
2023-03-21T08:17:06.292Z,8.40
2023-03-21T08:19:33.203Z,9.03
2023-03-21T08:22:00.233Z,8.27
2023-03-21T08:24:28.421Z,8.63
2023-03-21T08:26:55.831Z,8.50
2023-03-21T08:29:23.066Z,8.07
2023-03-21T08:31:50.357Z,8.20
2023-03-21T08:34:17.983Z,7.70
2023-03-21T08:36:45.456Z,8.10
2023-03-21T08:39:12.157Z,7.97
2023-03-21T08:41:39.219Z,7.63
2023-03-21T08:44:06.984Z,7.93
2023-03-21T08:46:34.103Z,7.80
2023-03-21T08:49:01.472Z,8.63
2023-03-21T08:51:28.567Z,7.67
2023-03-21T08:53:55.333Z,8.73
2023-03-21T08:56:22.342Z,7.60
2023-03-21T08:58:49.701Z,7.10
2023-03-21T09:01:16.901Z,6.23
2023-03-21T09:03:43.747Z,5.30
2023-03-21T09:06:14.189Z,4.50
2023-03-21T09:08:42.274Z,3.43
2023-03-21T09:11:10.741Z,3.40
2023-03-21T09:13:37.529Z,2.87
2023-03-21T09:16:05.281Z,2.90
2023-03-21T09:18:48.826Z,2.77
2023-03-21T09:21:18.203Z,2.87
2023-03-21T09:23:45.052Z,2.50
2023-03-21T09:26:13.667Z,3.35
2023-03-21T09:28:40.945Z,3.55
2023-03-21T09:31:11.692Z,3.60
2023-03-21T09:33:42.740Z,4.10
2023-03-21T09:36:14.123Z,3.67
2023-03-21T09:38:45.523Z,3.60
2023-03-21T09:41:33.453Z,3.53
2023-03-21T09:44:18.828Z,3.15
2023-03-21T09:46:54.890Z,2.40
2023-03-21T09:49:25.635Z,2.40
2023-03-21T09:51:56.573Z,2.70
2023-03-21T09:54:45.875Z,2.80
2023-03-21T09:57:28.346Z,3.47
2023-03-21T09:59:58.524Z,3.28
2023-03-21T10:02:48.026Z,3.42
2023-03-21T10:05:21.754Z,3.13
2023-03-21T10:08:04.629Z,3.67
2023-03-21T10:10:39.624Z,3.72
2023-03-21T10:13:22.631Z,3.30
2023-03-21T10:15:49.453Z,3.53
2023-03-21T10:18:22.832Z,3.10
2023-03-21T10:20:51.290Z,3.63
2023-03-21T10:23:22.589Z,4.13
2023-03-21T10:25:54.858Z,5.20
2023-03-21T10:28:27.137Z,4.67
2023-03-21T10:30:56.759Z,4.90
2023-03-21T10:33:32.210Z,4.97
2023-03-21T10:36:02.219Z,5.17
2023-03-21T10:38:30.581Z,4.20
2023-03-21T10:40:57.448Z,4.30
2023-03-21T10:43:27.481Z,5.33
2023-03-21T10:45:56.020Z,4.27
2023-03-21T10:48:24.389Z,4.93
2023-03-21T10:50:54.836Z,4.40
2023-03-21T10:53:29.169Z,4.23
2023-03-21T10:56:00.259Z,4.77
2023-03-21T10:58:30.383Z,4.00
2023-03-21T11:01:00.955Z,3.60
2023-03-21T11:03:38.583Z,3.38
2023-03-21T11:06:06.864Z,2.85
2023-03-21T11:08:47.604Z,2.15
2023-03-21T11:11:36.841Z,3.15
2023-03-21T11:14:07.397Z,3.10
2023-03-21T11:16:40.810Z,3.00
2023-03-21T11:19:20.649Z,3.35
2023-03-21T11:21:47.710Z,3.40
2023-03-21T11:24:17.271Z,3.85
2023-03-21T11:26:48.212Z,2.60
2023-03-21T11:29:34.650Z,1.80
2023-03-21T11:32:10.483Z,2.05
2023-03-21T11:34:47.854Z,2.10
2023-03-21T11:37:31.309Z,2.65
2023-03-21T11:40:18.222Z,2.50
2023-03-21T11:42:48.224Z,2.45
2023-03-21T11:46:03.267Z,2.30
2023-03-21T11:48:49.076Z,2.80
2023-03-21T11:51:35.337Z,2.70
2023-03-21T11:54:41.952Z,2.80
2023-03-21T11:57:18.665Z,2.75
2023-03-21T12:00:14.358Z,3.00
2023-03-21T12:03:22.359Z,3.08
2023-03-21T12:05:56.257Z,3.60
2023-03-21T12:08:42.642Z,3.20
2023-03-21T12:11:25.425Z,2.80
2023-03-21T12:14:03.331Z,2.63
2023-03-21T12:16:59.119Z,2.15
2023-03-21T12:19:38.008Z,2.30
2023-03-21T12:22:28.160Z,2.80
2023-03-21T12:25:06.338Z,3.00
2023-03-21T12:27:43.373Z,2.80
2023-03-21T12:30:28.945Z,3.00
2023-03-21T12:33:13.699Z,2.47
2023-03-21T12:35:53.045Z,2.80
2023-03-21T12:38:42.679Z,3.20
2023-03-21T12:41:17.624Z,2.75
2023-03-21T12:43:47.103Z,2.80
2023-03-21T12:46:45.784Z,2.70
2023-03-21T12:49:24.988Z,3.13
2023-03-21T12:51:58.143Z,2.10
2023-03-21T12:54:52.350Z,2.57
2023-03-21T12:57:25.492Z,2.25
2023-03-21T13:00:01.139Z,2.28
2023-03-21T13:02:34.794Z,2.47
2023-03-21T13:05:18.606Z,2.58
2023-03-21T13:07:51.646Z,2.43
2023-03-21T13:10:24.238Z,3.20
2023-03-21T13:13:03.836Z,2.95
2023-03-21T13:15:50.613Z,2.90
2023-03-21T13:18:29.299Z,2.30
2023-03-21T13:20:58.286Z,2.90
2023-03-21T13:23:33.193Z,2.70
2023-03-21T13:26:00.255Z,3.23
2023-03-21T13:28:29.901Z,2.88
2023-03-21T13:31:18.568Z,2.97
2023-03-21T13:33:50.668Z,2.90
2023-03-21T13:36:24.260Z,2.60
2023-03-21T13:38:53.804Z,2.53
2023-03-21T13:41:48.886Z,2.70
2023-03-21T13:44:22.123Z,2.67
2023-03-21T13:47:00.217Z,2.73
2023-03-21T13:49:36.353Z,1.93
2023-03-21T13:52:09.175Z,2.17
2023-03-21T13:54:39.005Z,2.00
2023-03-21T13:57:06.569Z,1.80
2023-03-21T13:59:44.649Z,1.88
2023-03-21T14:02:33.000Z,1.80
2023-03-21T14:05:05.598Z,1.73
2023-03-21T14:07:36.689Z,1.88
2023-03-21T14:10:08.494Z,1.80
2023-03-21T14:12:40.804Z,2.15
2023-03-21T14:15:23.576Z,1.98
2023-03-21T14:18:21.227Z,2.03
2023-03-21T14:20:58.287Z,2.30
2023-03-21T14:23:25.801Z,2.60
2023-03-21T14:25:53.392Z,2.30
2023-03-21T14:28:33.205Z,2.17
2023-03-21T14:31:01.153Z,2.80
2023-03-21T14:33:30.622Z,2.47
2023-03-21T14:36:00.819Z,2.42
2023-03-21T14:38:34.667Z,2.30
2023-03-21T14:41:01.739Z,2.20
2023-03-21T14:43:28.631Z,1.75
2023-03-21T14:45:56.877Z,1.80
2023-03-21T14:48:32.543Z,1.40
2023-03-21T14:51:09.323Z,1.63
2023-03-21T14:53:39.866Z,1.83
2023-03-21T14:56:27.236Z,1.63
2023-03-21T14:58:54.142Z,2.05
2023-03-21T15:01:34.751Z,2.25
2023-03-21T15:04:06.351Z,1.77
2023-03-21T15:06:35.719Z,1.80
2023-03-21T15:09:05.136Z,2.00
2023-03-21T15:11:38.457Z,2.10
2023-03-21T15:14:08.368Z,1.65
2023-03-21T15:16:36.350Z,1.65
2023-03-21T15:19:05.220Z,2.40
2023-03-21T15:21:38.174Z,2.00
2023-03-21T15:24:13.937Z,2.05
2023-03-21T15:26:45.915Z,1.93
2023-03-21T15:29:14.984Z,1.80
2023-03-21T15:31:42.690Z,1.77
2023-03-21T15:34:26.321Z,1.50
2023-03-21T15:37:18.837Z,1.80
2023-03-21T15:39:45.969Z,2.20
2023-03-21T15:42:34.568Z,2.10
2023-03-21T15:45:08.644Z,1.97
2023-03-21T15:48:03.500Z,1.80
2023-03-21T15:50:37.663Z,1.80
2023-03-21T15:53:08.290Z,3.72
2023-03-21T15:55:49.893Z,1.90
2023-03-21T15:58:20.607Z,4.97
2023-03-21T16:01:01.804Z,2.70
2023-03-21T16:03:33.109Z,2.00
2023-03-21T16:06:12.659Z,2.57
2023-03-21T16:09:14.300Z,2.53
2023-03-21T16:11:52.690Z,2.30
2023-03-21T16:14:21.908Z,3.83
2023-03-21T16:16:49.888Z,3.40
2023-03-21T16:19:17.267Z,3.07
2023-03-21T16:21:44.024Z,3.20
2023-03-21T16:24:13.350Z,3.13
2023-03-21T16:26:47.562Z,3.33
2023-03-21T16:29:15.839Z,3.60
2023-03-21T16:31:43.336Z,3.53
2023-03-21T16:34:10.883Z,3.27
2023-03-21T16:36:40.323Z,3.70
2023-03-21T16:39:20.687Z,3.23
2023-03-21T16:41:47.868Z,3.13
2023-03-21T16:44:14.957Z,3.40
2023-03-21T16:46:41.729Z,3.17
2023-03-21T16:49:23.812Z,3.10
2023-03-21T16:51:51.428Z,3.53
2023-03-21T16:54:18.528Z,4.13
2023-03-21T16:56:49.284Z,2.63
2023-03-21T16:59:16.724Z,2.50
2023-03-21T17:01:46.116Z,2.30
2023-03-21T17:04:14.825Z,2.30
2023-03-21T17:06:52.959Z,2.90
2023-03-21T17:09:26.331Z,2.83
2023-03-21T17:11:53.203Z,2.20
2023-03-21T17:14:21.599Z,2.13
2023-03-21T17:16:48.869Z,2.50
2023-03-21T17:19:18.901Z,1.93
2023-03-21T17:21:46.532Z,2.10
2023-03-21T17:24:13.909Z,2.37
2023-03-21T17:26:41.031Z,2.70
2023-03-21T17:29:13.074Z,3.70
2023-03-21T17:31:40.398Z,2.20
2023-03-21T17:34:08.427Z,1.83
2023-03-21T17:36:38.166Z,2.10
2023-03-21T17:39:08.804Z,2.10
2023-03-21T17:41:35.734Z,1.87
2023-03-21T17:44:03.140Z,1.97
2023-03-21T17:46:36.884Z,1.80
2023-03-21T17:49:05.338Z,2.03
2023-03-21T17:51:33.083Z,2.77
2023-03-21T17:54:00.657Z,2.10
2023-03-21T17:56:30.988Z,1.80
2023-03-21T17:59:00.168Z,1.67
2023-03-21T18:01:27.302Z,2.17
2023-03-21T18:03:57.076Z,2.20
2023-03-21T18:06:26.085Z,1.73
2023-03-21T18:08:54.947Z,2.07
2023-03-21T18:11:24.065Z,2.10
2023-03-21T18:13:59.439Z,2.80
2023-03-21T18:16:33.783Z,2.37
2023-03-21T18:19:00.857Z,3.70
2023-03-21T18:21:32.199Z,8.20
2023-03-21T18:24:00.275Z,8.00
2023-03-21T18:26:27.009Z,5.23
2023-03-21T18:29:36.581Z,13.83
2023-03-21T18:31:40.701Z,6.57
2023-03-21T18:34:07.830Z,5.53
2023-03-21T18:36:34.745Z,4.60
2023-03-21T18:39:03.478Z,4.07
2023-03-21T18:41:30.639Z,3.93
2023-03-21T18:44:02.869Z,4.97
2023-03-21T18:46:36.823Z,7.57
2023-03-21T18:49:33.968Z,8.57
2023-03-21T18:51:52.507Z,8.57
2023-03-21T18:54:20.603Z,7.03
2023-03-21T18:57:33.782Z,8.83
2023-03-21T18:59:39.279Z,7.47
2023-03-21T19:02:07.570Z,6.03
2023-03-21T19:04:37.324Z,7.77
2023-03-21T19:07:05.017Z,7.57
2023-03-21T19:09:54.793Z,6.77
2023-03-21T19:12:20.368Z,7.33
2023-03-21T19:14:47.431Z,7.30
2023-03-21T19:20:02.516Z,10.87
2023-03-21T19:22:29.543Z,10.87
2023-03-21T19:24:56.518Z,10.17
2023-03-21T19:27:23.616Z,11.73
2023-03-21T19:30:08.355Z,13.13
2023-03-21T19:32:37.838Z,12.77
2023-03-21T19:35:05.617Z,12.07
2023-03-21T19:37:35.185Z,12.60
2023-03-21T19:40:03.685Z,13.30
2023-03-21T19:42:31.008Z,13.20
2023-03-21T19:44:58.107Z,12.70
2023-03-21T19:47:25.326Z,13.20
2023-03-21T19:52:40.800Z,14.87
2023-03-21T19:55:08.365Z,14.90
2023-03-21T19:57:36.277Z,16.43
2023-03-21T20:00:04.633Z,15.03
2023-03-21T20:02:36.082Z,15.27
2023-03-21T20:05:05.347Z,16.50
2023-03-21T20:07:33.042Z,17.83
2023-03-21T20:10:00.357Z,16.50
2023-03-21T20:12:27.593Z,17.03
2023-03-21T20:15:06.961Z,17.87
2023-03-21T20:17:42.126Z,18.30
2023-03-21T20:20:10.200Z,19.13
2023-03-21T20:23:05.140Z,18.63
2023-03-21T20:25:24.631Z,17.80
2023-03-21T20:28:09.374Z,19.60
2023-03-21T20:30:44.050Z,17.83
2023-03-21T20:33:11.452Z,19.93
2023-03-21T20:36:24.129Z,21.20
2023-03-21T20:38:26.104Z,21.33
2023-03-21T20:40:53.160Z,22.30
2023-03-21T20:44:11.699Z,21.50
2023-03-21T20:46:09.967Z,20.87
2023-03-21T20:48:38.378Z,22.60
2023-03-21T20:52:00.208Z,22.63
2023-03-21T20:53:56.652Z,22.97
2023-03-21T20:56:24.136Z,21.50
2023-03-21T20:59:07.951Z,22.57
2023-03-21T21:01:38.724Z,22.93
2023-03-21T21:04:05.818Z,23.70
2023-03-21T21:06:33.018Z,23.27
2023-03-21T21:09:00.208Z,23.70
2023-03-21T21:12:05.013Z,24.70
2023-03-21T21:14:15.699Z,25.87
2023-03-21T21:16:42.812Z,26.00
2023-03-21T21:19:09.904Z,26.83
2023-03-21T21:21:37.576Z,26.57
2023-03-21T21:24:07.460Z,26.03
2023-03-21T21:26:35.342Z,26.40
2023-03-21T21:29:02.205Z,26.97
2023-03-21T21:31:29.338Z,27.97
2023-03-21T21:33:56.043Z,28.33
2023-03-21T21:36:24.098Z,28.67
2023-03-21T21:38:52.965Z,28.97
2023-03-21T21:41:22.542Z,28.67
2023-03-21T21:43:49.436Z,30.17
2023-03-21T21:46:17.014Z,30.70
2023-03-21T21:48:44.315Z,30.77
2023-03-21T21:51:11.620Z,31.60
2023-03-21T21:53:38.909Z,30.30
2023-03-21T21:56:06.410Z,31.53
2023-03-21T21:58:34.012Z,30.40
2023-03-21T22:01:01.888Z,30.17
2023-03-21T22:03:41.066Z,33.97
2023-03-21T22:06:09.529Z,32.83
2023-03-21T22:08:36.910Z,33.80
2023-03-21T22:11:05.178Z,33.50
2023-03-21T22:13:32.496Z,33.93
2023-03-21T22:15:59.614Z,35.87
2023-03-21T22:18:26.416Z,38.63
2023-03-21T22:20:53.703Z,34.27
2023-03-21T22:23:20.637Z,37.83
2023-03-21T22:25:51.758Z,36.27
2023-03-21T22:28:22.221Z,36.37
2023-03-21T22:30:49.455Z,37.57
2023-03-21T22:33:16.296Z,37.57
2023-03-21T22:35:43.286Z,38.03
2023-03-21T22:38:10.337Z,36.20
2023-03-21T22:40:37.611Z,39.80
2023-03-21T22:43:04.816Z,40.37
2023-03-21T22:45:33.612Z,38.30
2023-03-21T22:48:00.537Z,40.20
2023-03-21T22:50:28.509Z,39.73
2023-03-21T22:52:55.340Z,40.43
2023-03-21T22:55:22.311Z,41.30
2023-03-21T22:57:48.998Z,41.97
2023-03-21T23:00:16.581Z,39.27
2023-03-21T23:02:43.281Z,41.03
2023-03-21T23:05:11.411Z,40.47
2023-03-21T23:07:38.588Z,41.17
2023-03-21T23:10:06.907Z,43.70
2023-03-21T23:12:33.797Z,41.53
2023-03-21T23:15:02.389Z,39.80
2023-03-21T23:17:29.357Z,38.67
2023-03-21T23:19:56.438Z,40.73
2023-03-21T23:22:23.153Z,42.67
2023-03-21T23:24:50.907Z,43.23
2023-03-21T23:27:18.137Z,41.93
2023-03-21T23:29:45.430Z,40.87
2023-03-21T23:32:12.470Z,42.87
2023-03-21T23:34:39.737Z,42.53
2023-03-21T23:37:06.944Z,43.87
2023-03-21T23:39:34.459Z,44.37
2023-03-21T23:42:01.572Z,43.87
2023-03-21T23:44:29.253Z,47.03
2023-03-21T23:46:56.615Z,45.07
2023-03-21T23:49:23.979Z,42.80
2023-03-21T23:51:51.421Z,43.87
2023-03-21T23:54:18.846Z,44.53
2023-03-21T23:56:45.800Z,45.27
2023-03-21T23:59:12.796Z,44.07
